sensor_id;sensor_type;location;lat;lon;timestamp;P1;durP1;ratioP1;P2;durP2;ratioP2
3873;SDS011;1952;50.872;6.692;2023-07-20T00:00:30;4.93;;;4.13;;
3873;SDS011;1952;50.872;6.692;2023-07-20T00:03:09;6.67;;;4.87;;
3873;SDS011;1952;50.872;6.692;2023-07-20T00:05:43;6.10;;;4.67;;
3873;SDS011;1952;50.872;6.692;2023-07-20T00:08:12;3.87;;;3.50;;
3873;SDS011;1952;50.872;6.692;2023-07-20T00:10:41;5.30;;;3.93;;
3873;SDS011;1952;50.872;6.692;2023-07-20T00:13:10;4.23;;;3.83;;
3873;SDS011;1952;50.872;6.692;2023-07-20T00:15:39;4.43;;;3.80;;
3873;SDS011;1952;50.872;6.692;2023-07-20T00:18:07;5.23;;;4.00;;
3873;SDS011;1952;50.872;6.692;2023-07-20T00:57:28;7.33;;;4.30;;
3873;SDS011;1952;50.872;6.692;2023-07-20T00:59:57;4.00;;;3.60;;
3873;SDS011;1952;50.872;6.692;2023-07-20T01:02:25;5.30;;;4.43;;
3873;SDS011;1952;50.872;6.692;2023-07-20T01:04:53;8.23;;;4.50;;
3873;SDS011;1952;50.872;6.692;2023-07-20T01:07:23;7.17;;;4.70;;
3873;SDS011;1952;50.872;6.692;2023-07-20T01:09:56;5.77;;;5.17;;
3873;SDS011;1952;50.872;6.692;2023-07-20T01:12:32;4.93;;;4.43;;
3873;SDS011;1952;50.872;6.692;2023-07-20T01:15:07;4.97;;;4.27;;
3873;SDS011;1952;50.872;6.692;2023-07-20T01:17:35;4.80;;;4.40;;
3873;SDS011;1952;50.872;6.692;2023-07-20T01:20:04;4.53;;;4.17;;
3873;SDS011;1952;50.872;6.692;2023-07-20T01:22:40;4.67;;;4.20;;
3873;SDS011;1952;50.872;6.692;2023-07-20T01:25:41;6.20;;;4.90;;
3873;SDS011;1952;50.872;6.692;2023-07-20T01:28:30;9.30;;;5.43;;
3873;SDS011;1952;50.872;6.692;2023-07-20T01:31:15;5.70;;;4.87;;
3873;SDS011;1952;50.872;6.692;2023-07-20T01:33:54;5.47;;;4.97;;
3873;SDS011;1952;50.872;6.692;2023-07-20T01:36:24;5.57;;;5.03;;
3873;SDS011;1952;50.872;6.692;2023-07-20T01:38:55;5.10;;;4.60;;
3873;SDS011;1952;50.872;6.692;2023-07-20T01:41:23;5.43;;;4.50;;
3873;SDS011;1952;50.872;6.692;2023-07-20T01:43:52;4.83;;;4.43;;
3873;SDS011;1952;50.872;6.692;2023-07-20T01:46:21;6.67;;;4.73;;
3873;SDS011;1952;50.872;6.692;2023-07-20T01:48:50;5.03;;;4.53;;
3873;SDS011;1952;50.872;6.692;2023-07-20T01:51:18;7.07;;;4.57;;
3873;SDS011;1952;50.872;6.692;2023-07-20T01:53:46;7.50;;;4.40;;
3873;SDS011;1952;50.872;6.692;2023-07-20T01:56:14;6.00;;;3.60;;
3873;SDS011;1952;50.872;6.692;2023-07-20T01:58:43;4.47;;;4.07;;
3873;SDS011;1952;50.872;6.692;2023-07-20T02:01:10;5.30;;;4.20;;
3873;SDS011;1952;50.872;6.692;2023-07-20T02:03:42;8.33;;;4.83;;
3873;SDS011;1952;50.872;6.692;2023-07-20T02:06:10;7.50;;;4.30;;
3873;SDS011;1952;50.872;6.692;2023-07-20T02:11:07;6.00;;;5.10;;
3873;SDS011;1952;50.872;6.692;2023-07-20T02:13:36;5.53;;;5.03;;
3873;SDS011;1952;50.872;6.692;2023-07-20T02:16:04;7.30;;;4.87;;
3873;SDS011;1952;50.872;6.692;2023-07-20T02:18:32;4.63;;;4.03;;
3873;SDS011;1952;50.872;6.692;2023-07-20T02:21:03;7.20;;;4.20;;
3873;SDS011;1952;50.872;6.692;2023-07-20T02:23:31;5.70;;;5.03;;
3873;SDS011;1952;50.872;6.692;2023-07-20T02:26:00;6.53;;;5.00;;
3873;SDS011;1952;50.872;6.692;2023-07-20T02:28:28;7.90;;;5.30;;
3873;SDS011;1952;50.872;6.692;2023-07-20T02:30:57;8.30;;;5.20;;
3873;SDS011;1952;50.872;6.692;2023-07-20T02:33:25;5.40;;;4.90;;
3873;SDS011;1952;50.872;6.692;2023-07-20T02:35:53;4.10;;;3.70;;
3873;SDS011;1952;50.872;6.692;2023-07-20T02:38:23;5.40;;;4.23;;
3873;SDS011;1952;50.872;6.692;2023-07-20T02:40:52;5.60;;;3.50;;
3873;SDS011;1952;50.872;6.692;2023-07-20T02:43:20;4.67;;;4.20;;
3873;SDS011;1952;50.872;6.692;2023-07-20T02:45:50;5.20;;;4.03;;
3873;SDS011;1952;50.872;6.692;2023-07-20T02:48:18;5.90;;;4.50;;
3873;SDS011;1952;50.872;6.692;2023-07-20T02:50:46;5.37;;;4.17;;
3873;SDS011;1952;50.872;6.692;2023-07-20T02:53:14;4.83;;;4.33;;
3873;SDS011;1952;50.872;6.692;2023-07-20T02:55:44;3.90;;;3.33;;
3873;SDS011;1952;50.872;6.692;2023-07-20T02:58:12;4.30;;;3.90;;
3873;SDS011;1952;50.872;6.692;2023-07-20T03:00:42;4.07;;;3.67;;
3873;SDS011;1952;50.872;6.692;2023-07-20T03:03:10;3.83;;;3.43;;
3873;SDS011;1952;50.872;6.692;2023-07-20T03:05:40;5.20;;;4.13;;
3873;SDS011;1952;50.872;6.692;2023-07-20T03:08:08;4.90;;;4.40;;
3873;SDS011;1952;50.872;6.692;2023-07-20T03:10:39;5.03;;;3.63;;
3873;SDS011;1952;50.872;6.692;2023-07-20T03:13:09;4.80;;;4.30;;
3873;SDS011;1952;50.872;6.692;2023-07-20T03:15:37;4.33;;;3.90;;
3873;SDS011;1952;50.872;6.692;2023-07-20T03:18:05;4.43;;;4.00;;
3873;SDS011;1952;50.872;6.692;2023-07-20T03:20:34;7.33;;;4.30;;
3873;SDS011;1952;50.872;6.692;2023-07-20T03:23:03;4.77;;;3.60;;
3873;SDS011;1952;50.872;6.692;2023-07-20T03:25:31;7.00;;;4.60;;
3873;SDS011;1952;50.872;6.692;2023-07-20T03:27:59;3.97;;;3.63;;
3873;SDS011;1952;50.872;6.692;2023-07-20T03:30:29;4.53;;;4.13;;
3873;SDS011;1952;50.872;6.692;2023-07-20T03:32:57;6.23;;;3.90;;
3873;SDS011;1952;50.872;6.692;2023-07-20T03:35:26;4.07;;;3.67;;
3873;SDS011;1952;50.872;6.692;2023-07-20T03:37:54;6.40;;;4.60;;
3873;SDS011;1952;50.872;6.692;2023-07-20T03:40:22;4.37;;;4.00;;
3873;SDS011;1952;50.872;6.692;2023-07-20T03:42:51;3.90;;;3.40;;
3873;SDS011;1952;50.872;6.692;2023-07-20T03:45:19;4.73;;;3.77;;
3873;SDS011;1952;50.872;6.692;2023-07-20T03:47:51;3.90;;;3.60;;
3873;SDS011;1952;50.872;6.692;2023-07-20T03:50:19;5.87;;;3.33;;
3873;SDS011;1952;50.872;6.692;2023-07-20T03:52:47;5.13;;;4.40;;
3873;SDS011;1952;50.872;6.692;2023-07-20T03:55:15;3.63;;;3.33;;
3873;SDS011;1952;50.872;6.692;2023-07-20T03:57:44;4.03;;;3.40;;
3873;SDS011;1952;50.872;6.692;2023-07-20T04:00:12;3.83;;;3.33;;
3873;SDS011;1952;50.872;6.692;2023-07-20T04:02:42;3.83;;;3.20;;
3873;SDS011;1952;50.872;6.692;2023-07-20T04:05:12;4.17;;;3.40;;
3873;SDS011;1952;50.872;6.692;2023-07-20T04:07:40;3.90;;;3.50;;
3873;SDS011;1952;50.872;6.692;2023-07-20T04:10:09;5.00;;;3.93;;
3873;SDS011;1952;50.872;6.692;2023-07-20T04:12:37;14.23;;;3.90;;
3873;SDS011;1952;50.872;6.692;2023-07-20T04:15:06;3.53;;;3.23;;
3873;SDS011;1952;50.872;6.692;2023-07-20T04:17:35;5.10;;;4.03;;
3873;SDS011;1952;50.872;6.692;2023-07-20T04:20:03;3.93;;;3.53;;
3873;SDS011;1952;50.872;6.692;2023-07-20T04:22:33;5.27;;;3.67;;
3873;SDS011;1952;50.872;6.692;2023-07-20T04:25:02;5.90;;;3.83;;
3873;SDS011;1952;50.872;6.692;2023-07-20T04:27:30;6.50;;;4.63;;
3873;SDS011;1952;50.872;6.692;2023-07-20T04:29:59;5.57;;;4.60;;
3873;SDS011;1952;50.872;6.692;2023-07-20T04:32:27;5.30;;;3.13;;
3873;SDS011;1952;50.872;6.692;2023-07-20T04:34:55;7.90;;;4.70;;
3873;SDS011;1952;50.872;6.692;2023-07-20T04:37:24;4.10;;;3.20;;
3873;SDS011;1952;50.872;6.692;2023-07-20T04:39:53;5.90;;;4.10;;
3873;SDS011;1952;50.872;6.692;2023-07-20T04:42:21;5.87;;;4.30;;
3873;SDS011;1952;50.872;6.692;2023-07-20T04:44:50;5.67;;;3.13;;
3873;SDS011;1952;50.872;6.692;2023-07-20T04:47:18;6.17;;;4.90;;
3873;SDS011;1952;50.872;6.692;2023-07-20T04:49:46;6.50;;;4.20;;
3873;SDS011;1952;50.872;6.692;2023-07-20T04:52:15;6.50;;;4.23;;
3873;SDS011;1952;50.872;6.692;2023-07-20T04:54:43;10.50;;;4.93;;
3873;SDS011;1952;50.872;6.692;2023-07-20T04:57:13;5.33;;;4.17;;
3873;SDS011;1952;50.872;6.692;2023-07-20T04:59:41;4.63;;;4.13;;
3873;SDS011;1952;50.872;6.692;2023-07-20T05:02:10;7.73;;;4.17;;
3873;SDS011;1952;50.872;6.692;2023-07-20T05:04:38;4.67;;;4.17;;
3873;SDS011;1952;50.872;6.692;2023-07-20T05:07:06;5.47;;;4.53;;
3873;SDS011;1952;50.872;6.692;2023-07-20T05:09:35;5.53;;;3.27;;
3873;SDS011;1952;50.872;6.692;2023-07-20T05:12:03;5.90;;;3.73;;
3873;SDS011;1952;50.872;6.692;2023-07-20T05:14:35;5.10;;;4.60;;
3873;SDS011;1952;50.872;6.692;2023-07-20T05:17:03;9.03;;;5.37;;
3873;SDS011;1952;50.872;6.692;2023-07-20T05:19:31;9.70;;;4.90;;
3873;SDS011;1952;50.872;6.692;2023-07-20T05:22:02;7.50;;;4.93;;
3873;SDS011;1952;50.872;6.692;2023-07-20T05:24:32;6.80;;;4.80;;
3873;SDS011;1952;50.872;6.692;2023-07-20T05:27:01;7.80;;;4.83;;
3873;SDS011;1952;50.872;6.692;2023-07-20T05:29:29;9.33;;;4.40;;
3873;SDS011;1952;50.872;6.692;2023-07-20T05:32:00;6.60;;;4.47;;
3873;SDS011;1952;50.872;6.692;2023-07-20T05:34:29;8.63;;;5.57;;
3873;SDS011;1952;50.872;6.692;2023-07-20T05:36:58;17.83;;;5.20;;
3873;SDS011;1952;50.872;6.692;2023-07-20T05:39:27;9.43;;;4.80;;
3873;SDS011;1952;50.872;6.692;2023-07-20T05:44:31;9.67;;;5.30;;
3873;SDS011;1952;50.872;6.692;2023-07-20T05:47:01;6.20;;;5.17;;
3873;SDS011;1952;50.872;6.692;2023-07-20T05:49:30;7.67;;;6.77;;
3873;SDS011;1952;50.872;6.692;2023-07-20T05:51:58;9.80;;;5.33;;
3873;SDS011;1952;50.872;6.692;2023-07-20T05:54:27;6.23;;;5.63;;
3873;SDS011;1952;50.872;6.692;2023-07-20T05:56:55;8.13;;;7.20;;
3873;SDS011;1952;50.872;6.692;2023-07-20T05:59:24;7.57;;;6.53;;
3873;SDS011;1952;50.872;6.692;2023-07-20T06:01:56;11.83;;;7.13;;
3873;SDS011;1952;50.872;6.692;2023-07-20T06:04:26;7.10;;;6.40;;
3873;SDS011;1952;50.872;6.692;2023-07-20T06:06:56;8.43;;;6.90;;
3873;SDS011;1952;50.872;6.692;2023-07-20T06:09:24;9.80;;;7.60;;
3873;SDS011;1952;50.872;6.692;2023-07-20T06:11:54;6.93;;;6.23;;
3873;SDS011;1952;50.872;6.692;2023-07-20T06:14:22;9.10;;;8.20;;
3873;SDS011;1952;50.872;6.692;2023-07-20T06:16:51;8.00;;;7.20;;
3873;SDS011;1952;50.872;6.692;2023-07-20T06:19:20;10.40;;;6.70;;
3873;SDS011;1952;50.872;6.692;2023-07-20T06:21:50;8.43;;;7.00;;
3873;SDS011;1952;50.872;6.692;2023-07-20T06:24:21;7.40;;;6.30;;
3873;SDS011;1952;50.872;6.692;2023-07-20T06:26:50;12.23;;;7.00;;
3873;SDS011;1952;50.872;6.692;2023-07-20T06:29:20;6.40;;;5.80;;
3873;SDS011;1952;50.872;6.692;2023-07-20T06:31:49;7.87;;;6.30;;
3873;SDS011;1952;50.872;6.692;2023-07-20T06:34:21;10.07;;;7.83;;
3873;SDS011;1952;50.872;6.692;2023-07-20T06:36:53;6.93;;;6.33;;
3873;SDS011;1952;50.872;6.692;2023-07-20T06:39:23;12.47;;;7.70;;
3873;SDS011;1952;50.872;6.692;2023-07-20T06:41:55;8.10;;;7.40;;
3873;SDS011;1952;50.872;6.692;2023-07-20T06:44:23;7.07;;;6.30;;
3873;SDS011;1952;50.872;6.692;2023-07-20T06:46:52;10.77;;;6.20;;
3873;SDS011;1952;50.872;6.692;2023-07-20T06:49:31;8.13;;;7.37;;
3873;SDS011;1952;50.872;6.692;2023-07-20T06:52:02;10.43;;;7.07;;
3873;SDS011;1952;50.872;6.692;2023-07-20T06:54:30;8.50;;;7.23;;
3873;SDS011;1952;50.872;6.692;2023-07-20T06:57:02;6.77;;;6.17;;
3873;SDS011;1952;50.872;6.692;2023-07-20T06:59:35;6.60;;;6.00;;
3873;SDS011;1952;50.872;6.692;2023-07-20T07:02:07;7.33;;;6.10;;
3873;SDS011;1952;50.872;6.692;2023-07-20T07:04:40;6.90;;;6.17;;
3873;SDS011;1952;50.872;6.692;2023-07-20T07:07:10;7.47;;;6.17;;
3873;SDS011;1952;50.872;6.692;2023-07-20T07:09:40;6.63;;;5.83;;
3873;SDS011;1952;50.872;6.692;2023-07-20T07:12:10;7.30;;;6.60;;
3873;SDS011;1952;50.872;6.692;2023-07-20T07:14:49;7.20;;;5.43;;
3873;SDS011;1952;50.872;6.692;2023-07-20T07:17:17;9.30;;;6.17;;
3873;SDS011;1952;50.872;6.692;2023-07-20T07:19:46;7.80;;;7.10;;
3873;SDS011;1952;50.872;6.692;2023-07-20T07:22:17;7.67;;;6.20;;
3873;SDS011;1952;50.872;6.692;2023-07-20T07:24:45;7.20;;;6.50;;
3873;SDS011;1952;50.872;6.692;2023-07-20T07:27:15;7.40;;;6.70;;
3873;SDS011;1952;50.872;6.692;2023-07-20T07:29:43;9.10;;;6.97;;
3873;SDS011;1952;50.872;6.692;2023-07-20T07:32:12;9.83;;;6.23;;
3873;SDS011;1952;50.872;6.692;2023-07-20T07:34:41;10.00;;;6.30;;
3873;SDS011;1952;50.872;6.692;2023-07-20T07:37:10;7.63;;;6.10;;
3873;SDS011;1952;50.872;6.692;2023-07-20T07:39:40;6.23;;;5.60;;
3873;SDS011;1952;50.872;6.692;2023-07-20T07:42:09;7.03;;;6.00;;
3873;SDS011;1952;50.872;6.692;2023-07-20T07:44:38;7.23;;;5.27;;
3873;SDS011;1952;50.872;6.692;2023-07-20T07:47:09;4.87;;;4.47;;
3873;SDS011;1952;50.872;6.692;2023-07-20T07:49:39;5.50;;;5.00;;
3873;SDS011;1952;50.872;6.692;2023-07-20T07:52:10;5.20;;;4.80;;
3873;SDS011;1952;50.872;6.692;2023-07-20T07:54:39;7.43;;;5.57;;
3873;SDS011;1952;50.872;6.692;2023-07-20T07:57:08;5.17;;;4.77;;
3873;SDS011;1952;50.872;6.692;2023-07-20T08:02:12;5.30;;;4.80;;
3873;SDS011;1952;50.872;6.692;2023-07-20T08:04:41;4.30;;;3.90;;
3873;SDS011;1952;50.872;6.692;2023-07-20T08:07:09;5.57;;;4.57;;
3873;SDS011;1952;50.872;6.692;2023-07-20T08:09:38;4.67;;;4.37;;
3873;SDS011;1952;50.872;6.692;2023-07-20T08:12:11;4.73;;;4.33;;
3873;SDS011;1952;50.872;6.692;2023-07-20T08:14:40;5.63;;;5.23;;
3873;SDS011;1952;50.872;6.692;2023-07-20T08:17:09;6.30;;;5.10;;
3873;SDS011;1952;50.872;6.692;2023-07-20T08:19:39;5.10;;;4.57;;
3873;SDS011;1952;50.872;6.692;2023-07-20T08:22:22;8.97;;;5.00;;
3873;SDS011;1952;50.872;6.692;2023-07-20T08:25:06;6.00;;;5.43;;
3873;SDS011;1952;50.872;6.692;2023-07-20T08:27:39;7.00;;;4.37;;
3873;SDS011;1952;50.872;6.692;2023-07-20T08:30:08;5.73;;;5.10;;
3873;SDS011;1952;50.872;6.692;2023-07-20T08:32:37;5.97;;;4.87;;
3873;SDS011;1952;50.872;6.692;2023-07-20T08:35:21;5.47;;;4.13;;
3873;SDS011;1952;50.872;6.692;2023-07-20T08:37:52;4.40;;;4.00;;
3873;SDS011;1952;50.872;6.692;2023-07-20T08:40:27;4.30;;;3.87;;
3873;SDS011;1952;50.872;6.692;2023-07-20T08:43:07;4.37;;;3.93;;
3873;SDS011;1952;50.872;6.692;2023-07-20T08:45:39;4.77;;;4.37;;
3873;SDS011;1952;50.872;6.692;2023-07-20T08:48:08;5.00;;;4.50;;
3873;SDS011;1952;50.872;6.692;2023-07-20T08:50:37;4.40;;;4.00;;
3873;SDS011;1952;50.872;6.692;2023-07-20T08:53:07;4.17;;;3.80;;
3873;SDS011;1952;50.872;6.692;2023-07-20T08:55:38;6.77;;;4.30;;
3873;SDS011;1952;50.872;6.692;2023-07-20T08:58:09;6.13;;;4.13;;
3873;SDS011;1952;50.872;6.692;2023-07-20T09:00:38;4.40;;;4.00;;
3873;SDS011;1952;50.872;6.692;2023-07-20T09:03:12;5.70;;;3.50;;
3873;SDS011;1952;50.872;6.692;2023-07-20T09:05:50;7.13;;;3.57;;
3873;SDS011;1952;50.872;6.692;2023-07-20T09:08:18;3.93;;;3.20;;
3873;SDS011;1952;50.872;6.692;2023-07-20T09:10:50;3.67;;;3.37;;
3873;SDS011;1952;50.872;6.692;2023-07-20T09:13:22;5.20;;;3.33;;
3873;SDS011;1952;50.872;6.692;2023-07-20T09:15:56;6.97;;;3.30;;
3873;SDS011;1952;50.872;6.692;2023-07-20T09:18:27;3.50;;;3.20;;
3873;SDS011;1952;50.872;6.692;2023-07-20T09:20:57;5.20;;;3.33;;
3873;SDS011;1952;50.872;6.692;2023-07-20T09:23:35;4.10;;;3.50;;
3873;SDS011;1952;50.872;6.692;2023-07-20T09:26:09;3.97;;;3.20;;
3873;SDS011;1952;50.872;6.692;2023-07-20T09:28:51;4.47;;;4.07;;
3873;SDS011;1952;50.872;6.692;2023-07-20T09:31:27;3.80;;;3.50;;
3873;SDS011;1952;50.872;6.692;2023-07-20T09:34:07;4.97;;;3.77;;
3873;SDS011;1952;50.872;6.692;2023-07-20T09:36:42;4.00;;;3.43;;
3873;SDS011;1952;50.872;6.692;2023-07-20T09:39:20;3.10;;;2.90;;
3873;SDS011;1952;50.872;6.692;2023-07-20T09:41:59;3.27;;;2.27;;
3873;SDS011;1952;50.872;6.692;2023-07-20T09:44:37;2.67;;;2.47;;
3873;SDS011;1952;50.872;6.692;2023-07-20T09:47:09;2.73;;;2.53;;
3873;SDS011;1952;50.872;6.692;2023-07-20T09:49:39;3.30;;;3.00;;
3873;SDS011;1952;50.872;6.692;2023-07-20T09:52:11;3.30;;;2.77;;
3873;SDS011;1952;50.872;6.692;2023-07-20T09:55:02;3.00;;;2.70;;
3873;SDS011;1952;50.872;6.692;2023-07-20T09:57:33;3.67;;;3.00;;
3873;SDS011;1952;50.872;6.692;2023-07-20T10:00:05;3.40;;;2.57;;
3873;SDS011;1952;50.872;6.692;2023-07-20T10:02:43;5.80;;;3.33;;
3873;SDS011;1952;50.872;6.692;2023-07-20T10:05:15;2.97;;;2.77;;
3873;SDS011;1952;50.872;6.692;2023-07-20T10:07:44;4.00;;;3.60;;
3873;SDS011;1952;50.872;6.692;2023-07-20T10:10:14;2.90;;;2.70;;
3873;SDS011;1952;50.872;6.692;2023-07-20T10:12:47;3.00;;;2.60;;
3873;SDS011;1952;50.872;6.692;2023-07-20T10:15:19;5.37;;;3.20;;
3873;SDS011;1952;50.872;6.692;2023-07-20T10:17:57;3.43;;;3.13;;
3873;SDS011;1952;50.872;6.692;2023-07-20T10:20:26;4.53;;;2.90;;
3873;SDS011;1952;50.872;6.692;2023-07-20T10:23:00;4.57;;;2.93;;
3873;SDS011;1952;50.872;6.692;2023-07-20T10:25:30;3.97;;;3.13;;
3873;SDS011;1952;50.872;6.692;2023-07-20T10:28:04;3.27;;;2.97;;
3873;SDS011;1952;50.872;6.692;2023-07-20T10:30:35;3.17;;;2.87;;
3873;SDS011;1952;50.872;6.692;2023-07-20T10:33:05;5.73;;;3.23;;
3873;SDS011;1952;50.872;6.692;2023-07-20T10:38:38;2.67;;;2.43;;
3873;SDS011;1952;50.872;6.692;2023-07-20T10:41:16;2.47;;;2.17;;
3873;SDS011;1952;50.872;6.692;2023-07-20T10:43:46;3.23;;;2.17;;
3873;SDS011;1952;50.872;6.692;2023-07-20T10:49:09;2.50;;;2.30;;
3873;SDS011;1952;50.872;6.692;2023-07-20T10:51:39;3.70;;;3.07;;
3873;SDS011;1952;50.872;6.692;2023-07-20T10:54:09;2.27;;;2.07;;
3873;SDS011;1952;50.872;6.692;2023-07-20T10:56:40;3.93;;;2.50;;
3873;SDS011;1952;50.872;6.692;2023-07-20T10:59:17;2.70;;;2.50;;
3873;SDS011;1952;50.872;6.692;2023-07-20T11:01:48;4.17;;;2.30;;
3873;SDS011;1952;50.872;6.692;2023-07-20T11:04:21;4.90;;;3.00;;
3873;SDS011;1952;50.872;6.692;2023-07-20T11:07:14;2.90;;;2.70;;
3873;SDS011;1952;50.872;6.692;2023-07-20T11:09:48;2.57;;;2.17;;
3873;SDS011;1952;50.872;6.692;2023-07-20T11:12:31;2.77;;;2.30;;
3873;SDS011;1952;50.872;6.692;2023-07-20T11:15:00;2.77;;;2.23;;
3873;SDS011;1952;50.872;6.692;2023-07-20T11:17:29;2.40;;;2.20;;
3873;SDS011;1952;50.872;6.692;2023-07-20T11:20:00;2.50;;;2.30;;
3873;SDS011;1952;50.872;6.692;2023-07-20T11:22:35;1.93;;;1.83;;
3873;SDS011;1952;50.872;6.692;2023-07-20T11:25:04;2.77;;;2.57;;
3873;SDS011;1952;50.872;6.692;2023-07-20T11:27:44;2.87;;;2.10;;
3873;SDS011;1952;50.872;6.692;2023-07-20T11:30:15;1.67;;;1.57;;
3873;SDS011;1952;50.872;6.692;2023-07-20T11:32:47;2.87;;;1.90;;
3873;SDS011;1952;50.872;6.692;2023-07-20T11:35:17;2.13;;;2.00;;
3873;SDS011;1952;50.872;6.692;2023-07-20T11:37:45;3.17;;;2.87;;
3873;SDS011;1952;50.872;6.692;2023-07-20T11:40:14;3.43;;;2.40;;
3873;SDS011;1952;50.872;6.692;2023-07-20T11:42:43;2.30;;;2.10;;
3873;SDS011;1952;50.872;6.692;2023-07-20T11:45:44;2.40;;;2.30;;
3873;SDS011;1952;50.872;6.692;2023-07-20T11:48:16;7.63;;;2.30;;
3873;SDS011;1952;50.872;6.692;2023-07-20T11:51:06;2.60;;;2.40;;
3873;SDS011;1952;50.872;6.692;2023-07-20T11:53:42;2.27;;;2.07;;
3873;SDS011;1952;50.872;6.692;2023-07-20T11:56:12;2.43;;;2.20;;
3873;SDS011;1952;50.872;6.692;2023-07-20T11:58:43;2.23;;;2.03;;
3873;SDS011;1952;50.872;6.692;2023-07-20T12:01:13;2.53;;;2.27;;
3873;SDS011;1952;50.872;6.692;2023-07-20T12:03:42;2.40;;;2.23;;
3873;SDS011;1952;50.872;6.692;2023-07-20T12:06:15;2.07;;;1.93;;
3873;SDS011;1952;50.872;6.692;2023-07-20T12:08:45;2.30;;;2.10;;
3873;SDS011;1952;50.872;6.692;2023-07-20T12:11:29;3.30;;;2.53;;
3873;SDS011;1952;50.872;6.692;2023-07-20T12:13:58;2.57;;;2.37;;
3873;SDS011;1952;50.872;6.692;2023-07-20T12:16:43;3.07;;;2.20;;
3873;SDS011;1952;50.872;6.692;2023-07-20T12:19:12;1.87;;;1.77;;
3873;SDS011;1952;50.872;6.692;2023-07-20T13:09:49;2.90;;;2.70;;
3873;SDS011;1952;50.872;6.692;2023-07-20T13:12:21;3.07;;;2.47;;
3873;SDS011;1952;50.872;6.692;2023-07-20T13:14:49;2.80;;;2.60;;
3873;SDS011;1952;50.872;6.692;2023-07-20T13:17:19;2.40;;;2.20;;
3873;SDS011;1952;50.872;6.692;2023-07-20T13:19:50;3.00;;;2.70;;
3873;SDS011;1952;50.872;6.692;2023-07-20T13:22:26;2.43;;;2.23;;
3873;SDS011;1952;50.872;6.692;2023-07-20T13:25:27;3.63;;;2.73;;
3873;SDS011;1952;50.872;6.692;2023-07-20T13:27:58;2.60;;;2.40;;
3873;SDS011;1952;50.872;6.692;2023-07-20T13:30:28;2.80;;;2.60;;
3873;SDS011;1952;50.872;6.692;2023-07-20T13:32:56;3.33;;;2.83;;
3873;SDS011;1952;50.872;6.692;2023-07-20T13:35:27;3.83;;;2.33;;
3873;SDS011;1952;50.872;6.692;2023-07-20T13:38:17;3.77;;;3.40;;
3873;SDS011;1952;50.872;6.692;2023-07-20T13:40:55;3.73;;;3.00;;
3873;SDS011;1952;50.872;6.692;2023-07-20T13:43:30;2.80;;;2.60;;
3873;SDS011;1952;50.872;6.692;2023-07-20T13:46:00;2.63;;;2.43;;
3873;SDS011;1952;50.872;6.692;2023-07-20T13:48:28;3.23;;;2.63;;
3873;SDS011;1952;50.872;6.692;2023-07-20T13:51:05;6.90;;;2.53;;
3873;SDS011;1952;50.872;6.692;2023-07-20T13:53:34;4.50;;;2.27;;
3873;SDS011;1952;50.872;6.692;2023-07-20T13:56:10;2.63;;;2.43;;
3873;SDS011;1952;50.872;6.692;2023-07-20T13:58:41;2.63;;;2.43;;
3873;SDS011;1952;50.872;6.692;2023-07-20T14:01:10;2.80;;;2.60;;
3873;SDS011;1952;50.872;6.692;2023-07-20T14:03:55;2.80;;;2.60;;
3873;SDS011;1952;50.872;6.692;2023-07-20T14:06:32;2.40;;;2.20;;
3873;SDS011;1952;50.872;6.692;2023-07-20T14:11:44;4.00;;;2.63;;
3873;SDS011;1952;50.872;6.692;2023-07-20T14:14:17;2.87;;;2.60;;
3873;SDS011;1952;50.872;6.692;2023-07-20T14:17:03;2.80;;;2.40;;
3873;SDS011;1952;50.872;6.692;2023-07-20T14:19:32;2.70;;;2.30;;
3873;SDS011;1952;50.872;6.692;2023-07-20T14:22:02;2.77;;;2.13;;
3873;SDS011;1952;50.872;6.692;2023-07-20T14:24:32;2.50;;;2.30;;
3873;SDS011;1952;50.872;6.692;2023-07-20T14:27:03;2.67;;;2.47;;
3873;SDS011;1952;50.872;6.692;2023-07-20T14:29:34;2.97;;;2.37;;
3873;SDS011;1952;50.872;6.692;2023-07-20T14:32:03;2.43;;;2.23;;
3873;SDS011;1952;50.872;6.692;2023-07-20T14:34:35;2.50;;;2.30;;
3873;SDS011;1952;50.872;6.692;2023-07-20T14:37:13;2.70;;;2.50;;
3873;SDS011;1952;50.872;6.692;2023-07-20T14:39:42;2.20;;;2.10;;
3873;SDS011;1952;50.872;6.692;2023-07-20T14:45:17;4.33;;;2.23;;
3873;SDS011;1952;50.872;6.692;2023-07-20T14:48:14;3.40;;;1.80;;
3873;SDS011;1952;50.872;6.692;2023-07-20T14:50:44;3.20;;;2.00;;
3873;SDS011;1952;50.872;6.692;2023-07-20T14:53:27;2.30;;;2.10;;
3873;SDS011;1952;50.872;6.692;2023-07-20T14:56:12;1.87;;;1.77;;
3873;SDS011;1952;50.872;6.692;2023-07-20T14:58:56;2.60;;;2.40;;
3873;SDS011;1952;50.872;6.692;2023-07-20T15:01:27;2.40;;;2.20;;
3873;SDS011;1952;50.872;6.692;2023-07-20T15:03:56;1.93;;;1.83;;
3873;SDS011;1952;50.872;6.692;2023-07-20T15:06:27;2.70;;;2.50;;
3873;SDS011;1952;50.872;6.692;2023-07-20T15:08:56;2.67;;;2.00;;
3873;SDS011;1952;50.872;6.692;2023-07-20T15:11:27;2.83;;;2.23;;
3873;SDS011;1952;50.872;6.692;2023-07-20T15:13:57;2.27;;;2.07;;
3873;SDS011;1952;50.872;6.692;2023-07-20T15:16:31;3.30;;;2.63;;
3873;SDS011;1952;50.872;6.692;2023-07-20T15:19:02;2.23;;;2.10;;
3873;SDS011;1952;50.872;6.692;2023-07-20T15:21:32;2.50;;;2.30;;
3873;SDS011;1952;50.872;6.692;2023-07-20T15:24:00;2.60;;;2.40;;
3873;SDS011;1952;50.872;6.692;2023-07-20T15:26:29;2.90;;;2.70;;
3873;SDS011;1952;50.872;6.692;2023-07-20T15:29:03;2.60;;;2.40;;
3873;SDS011;1952;50.872;6.692;2023-07-20T15:31:54;3.40;;;3.10;;
3873;SDS011;1952;50.872;6.692;2023-07-20T15:34:28;2.83;;;2.63;;
3873;SDS011;1952;50.872;6.692;2023-07-20T15:37:24;3.60;;;2.63;;
3873;SDS011;1952;50.872;6.692;2023-07-20T15:40:20;2.37;;;2.17;;
3873;SDS011;1952;50.872;6.692;2023-07-20T15:42:50;2.80;;;2.60;;
3873;SDS011;1952;50.872;6.692;2023-07-20T15:48:12;3.10;;;2.30;;
3873;SDS011;1952;50.872;6.692;2023-07-20T15:50:41;3.03;;;2.77;;
3873;SDS011;1952;50.872;6.692;2023-07-20T15:53:22;2.00;;;1.90;;
3873;SDS011;1952;50.872;6.692;2023-07-20T15:56:04;2.83;;;2.43;;
3873;SDS011;1952;50.872;6.692;2023-07-20T15:58:34;3.03;;;2.13;;
3873;SDS011;1952;50.872;6.692;2023-07-20T16:01:29;2.13;;;1.93;;
3873;SDS011;1952;50.872;6.692;2023-07-20T16:04:01;2.77;;;2.43;;
3873;SDS011;1952;50.872;6.692;2023-07-20T16:06:39;3.00;;;2.57;;
3873;SDS011;1952;50.872;6.692;2023-07-20T16:09:09;2.80;;;2.37;;
3873;SDS011;1952;50.872;6.692;2023-07-20T16:11:42;2.80;;;2.60;;
3873;SDS011;1952;50.872;6.692;2023-07-20T16:14:12;2.50;;;2.30;;
3873;SDS011;1952;50.872;6.692;2023-07-20T16:16:45;3.47;;;2.97;;
3873;SDS011;1952;50.872;6.692;2023-07-20T16:19:13;2.63;;;2.00;;
3873;SDS011;1952;50.872;6.692;2023-07-20T16:21:42;3.10;;;2.27;;
3873;SDS011;1952;50.872;6.692;2023-07-20T16:24:11;2.60;;;2.40;;
3873;SDS011;1952;50.872;6.692;2023-07-20T16:26:43;2.90;;;2.70;;
3873;SDS011;1952;50.872;6.692;2023-07-20T16:29:12;3.17;;;2.30;;
3873;SDS011;1952;50.872;6.692;2023-07-20T16:31:46;2.00;;;1.90;;
3873;SDS011;1952;50.872;6.692;2023-07-20T16:34:22;2.10;;;2.00;;
3873;SDS011;1952;50.872;6.692;2023-07-20T16:36:50;2.73;;;2.53;;
3873;SDS011;1952;50.872;6.692;2023-07-20T16:39:23;4.40;;;2.50;;
3873;SDS011;1952;50.872;6.692;2023-07-20T16:41:53;2.50;;;2.30;;
3873;SDS011;1952;50.872;6.692;2023-07-20T16:44:24;3.33;;;2.23;;
3873;SDS011;1952;50.872;6.692;2023-07-20T16:47:09;2.53;;;2.20;;
3873;SDS011;1952;50.872;6.692;2023-07-20T16:49:44;3.83;;;2.40;;
3873;SDS011;1952;50.872;6.692;2023-07-20T16:52:15;2.60;;;2.40;;
3873;SDS011;1952;50.872;6.692;2023-07-20T16:54:43;3.20;;;2.90;;
3873;SDS011;1952;50.872;6.692;2023-07-20T16:57:13;2.40;;;2.20;;
3873;SDS011;1952;50.872;6.692;2023-07-20T16:59:41;2.70;;;2.50;;
3873;SDS011;1952;50.872;6.692;2023-07-20T17:02:11;6.87;;;2.60;;
3873;SDS011;1952;50.872;6.692;2023-07-20T17:04:40;2.50;;;2.30;;
3873;SDS011;1952;50.872;6.692;2023-07-20T17:07:10;3.43;;;2.33;;
3873;SDS011;1952;50.872;6.692;2023-07-20T17:09:43;2.40;;;2.20;;
3873;SDS011;1952;50.872;6.692;2023-07-20T17:12:12;3.70;;;2.83;;
3873;SDS011;1952;50.872;6.692;2023-07-20T17:14:41;2.53;;;2.33;;
3873;SDS011;1952;50.872;6.692;2023-07-20T17:20:19;2.10;;;2.00;;
3873;SDS011;1952;50.872;6.692;2023-07-20T17:23:04;3.73;;;2.37;;
3873;SDS011;1952;50.872;6.692;2023-07-20T17:25:47;2.77;;;2.43;;
3873;SDS011;1952;50.872;6.692;2023-07-20T17:28:33;3.13;;;2.83;;
3873;SDS011;1952;50.872;6.692;2023-07-20T17:31:07;4.73;;;2.30;;
3873;SDS011;1952;50.872;6.692;2023-07-20T17:33:40;4.83;;;3.47;;